KSOP/SOP METAR and TAF weather

Enter ICAO airport designator
Station Type Date Time Source
KSOP METAR 2022/01/29 00:56 UTC NOAA

KSOP 290056Z AUTO 00000KT 10SM FEW085 BKN110 04/M05 A2983 RMK AO2 SLP111 T00391050 TSNO


Station Type Date Time Source
KSOP Decoded METAR 2022/01/29 00:56 UTC NOAA

Pinehurst/Southern Pines, Moore County Airport, NC, United States (KSOP) 35-14N 079-24W
Jan 28, 2022 - 07:56 PM EST / 2022.01.29 0056 UTC
Wind: Calm:0
Visibility: 10 mile(s):0
Sky conditions: mostly cloudy
Temperature: 39.0 F (3.9 C)
Dew Point: 23.0 F (-5.0 C)
Relative Humidity: 52%
Pressure (altimeter): 29.83 in. Hg (1010 hPa)
ob: KSOP 290056Z AUTO 00000KT 10SM FEW085 BKN110 04/M05 A2983 RMK AO2 SLP111 T00391050 TSNO
cycle: 1

Station Type Date Time Source
KSOP TAF UTC NOAA

Error!

Example: see airport list